createdAt,value
2023-04-01T00:00:00.592Z,232.68
2023-04-01T00:01:06.141Z,231.20
2023-04-01T00:02:08.355Z,273.02
2023-04-01T00:03:13.083Z,214.73
2023-04-01T00:04:17.904Z,275.05
2023-04-01T00:05:20.244Z,251.45
2023-04-01T00:06:24.854Z,294.25
2023-04-01T00:07:30.731Z,375.00
2023-04-01T00:08:36.041Z,384.17
2023-04-01T00:09:38.525Z,285.38
2023-04-01T00:10:43.341Z,311.08
2023-04-01T00:11:46.531Z,347.55
2023-04-01T00:12:51.364Z,359.10
2023-04-01T00:13:53.418Z,267.95
2023-04-01T00:14:57.994Z,230.75
2023-04-01T00:16:00.402Z,263.83
2023-04-01T00:17:05.216Z,254.98
2023-04-01T00:18:07.519Z,253.68
2023-04-01T00:19:12.168Z,224.85
2023-04-01T00:20:15.595Z,248.13
2023-04-01T00:21:21.585Z,237.52
2023-04-01T00:22:23.683Z,218.55
2023-04-01T00:23:31.098Z,281.90
2023-04-01T00:24:33.136Z,239.85
2023-04-01T00:25:37.708Z,250.77
2023-04-01T00:26:39.760Z,268.42
2023-04-01T00:27:44.397Z,258.92
2023-04-01T00:28:47.117Z,252.95
2023-04-01T00:29:51.707Z,338.85
2023-04-01T00:30:53.788Z,225.27
2023-04-01T00:31:58.359Z,193.02
2023-04-01T00:33:00.463Z,195.38
2023-04-01T00:34:05.164Z,249.95
2023-04-01T00:35:07.913Z,266.60
2023-04-01T00:36:15.686Z,203.32
2023-04-01T00:37:17.819Z,241.63
2023-04-01T00:38:22.965Z,269.60
2023-04-01T00:39:29.963Z,219.13
2023-04-01T00:40:37.073Z,249.65
2023-04-01T00:41:39.144Z,319.02
2023-04-01T00:42:43.726Z,434.70
2023-04-01T00:43:50.948Z,407.50
2023-04-01T00:44:55.133Z,225.40
2023-04-01T00:46:00.124Z,294.48
2023-04-01T00:47:02.520Z,305.00
2023-04-01T00:48:12.707Z,260.70
2023-04-01T00:49:17.540Z,303.55
2023-04-01T00:50:22.649Z,356.83
2023-04-01T00:52:48.731Z,324.80
2023-04-01T00:54:06.830Z,256.95
2023-04-01T00:55:17.531Z,213.75
2023-04-01T00:56:32.739Z,317.50
2023-04-01T00:57:45.068Z,208.98
2023-04-01T00:58:56.566Z,237.43
2023-04-01T01:00:01.545Z,200.07
2023-04-01T01:01:14.494Z,278.85
2023-04-01T01:02:32.973Z,263.88
2023-04-01T01:03:38.722Z,762.85
2023-04-01T01:04:44.762Z,405.52
2023-04-01T01:06:09.791Z,360.92
2023-04-01T01:07:24.398Z,544.47
2023-04-01T01:08:44.867Z,304.38
2023-04-01T01:09:58.859Z,275.73
2023-04-01T01:11:10.378Z,296.63
2023-04-01T01:12:19.077Z,234.98
2023-04-01T01:13:30.416Z,223.02
2023-04-01T01:14:56.543Z,257.90
2023-04-01T01:16:07.349Z,303.05
2023-04-01T01:17:22.878Z,253.23
2023-04-01T01:18:36.021Z,244.77
2023-04-01T01:20:23.042Z,293.55
2023-04-01T01:22:22.073Z,218.07
2023-04-01T01:23:56.149Z,267.00
2023-04-01T01:25:31.656Z,200.38
2023-04-01T01:26:54.045Z,252.00
2023-04-01T01:28:09.432Z,224.38
2023-04-01T01:29:31.749Z,225.43
2023-04-01T01:30:45.035Z,279.65
2023-04-01T01:31:57.253Z,270.38
2023-04-01T01:35:22.470Z,172.60
2023-04-01T01:36:36.912Z,232.70
2023-04-01T01:37:43.548Z,246.13
2023-04-01T01:38:50.572Z,234.10
2023-04-01T01:39:59.020Z,220.80
2023-04-01T01:41:08.021Z,227.27
2023-04-01T01:42:16.502Z,234.55
2023-04-01T01:43:28.690Z,309.83
2023-04-01T01:44:36.262Z,302.95
2023-04-01T01:45:48.508Z,205.98
2023-04-01T01:46:53.046Z,228.02
2023-04-01T01:48:02.682Z,165.43
2023-04-01T01:49:10.189Z,181.25
2023-04-01T01:50:20.797Z,186.63
2023-04-01T01:51:28.081Z,195.77
2023-04-01T01:52:31.341Z,223.95
2023-04-01T01:53:38.061Z,233.13
2023-04-01T01:54:50.556Z,222.73
2023-04-01T01:55:57.713Z,276.45
2023-04-01T01:57:08.066Z,184.85
2023-04-01T01:58:19.138Z,187.68
2023-04-01T01:59:26.422Z,221.65
2023-04-01T02:00:33.271Z,231.52
2023-04-01T02:01:46.099Z,194.52
2023-04-01T02:02:51.542Z,290.77
2023-04-01T02:03:59.437Z,179.43
2023-04-01T02:05:05.553Z,188.90
2023-04-01T02:06:18.716Z,212.68
2023-04-01T02:07:27.869Z,204.60
2023-04-01T02:08:40.421Z,275.90
2023-04-01T02:09:45.159Z,294.10
2023-04-01T02:11:01.002Z,253.32
2023-04-01T02:12:08.228Z,213.00
2023-04-01T02:13:21.873Z,193.88
2023-04-01T02:14:28.856Z,233.98
2023-04-01T02:15:39.319Z,286.83
2023-04-01T02:16:50.272Z,271.75
2023-04-01T02:18:28.893Z,211.25
2023-04-01T02:19:39.273Z,221.43
2023-04-01T02:20:47.220Z,257.23
2023-04-01T02:22:00.238Z,292.52
2023-04-01T02:23:09.649Z,231.35
2023-04-01T02:24:19.360Z,231.98
2023-04-01T02:25:28.465Z,202.55
2023-04-01T02:26:35.960Z,229.15
2023-04-01T02:27:40.629Z,186.93
2023-04-01T02:28:50.715Z,243.00
2023-04-01T02:29:55.026Z,263.83
2023-04-01T02:31:05.449Z,187.98
2023-04-01T02:32:10.715Z,226.23
2023-04-01T02:33:17.529Z,223.10
2023-04-01T02:34:22.114Z,213.52
2023-04-01T02:35:30.342Z,230.57
2023-04-01T02:36:37.329Z,228.18
2023-04-01T02:37:50.214Z,250.70
2023-04-01T02:38:57.055Z,356.58
2023-04-01T02:40:05.182Z,269.25
2023-04-01T02:41:09.445Z,257.15
2023-04-01T02:42:16.876Z,328.48
2023-04-01T02:43:21.457Z,277.17
2023-04-01T02:45:02.700Z,259.58
2023-04-01T02:46:07.055Z,230.05
2023-04-01T02:47:13.977Z,265.25
2023-04-01T02:48:19.154Z,285.90
2023-04-01T02:49:26.402Z,288.90
2023-04-01T02:50:31.456Z,304.52
2023-04-01T02:51:38.607Z,298.55
2023-04-01T02:54:38.444Z,366.13
2023-04-01T02:55:40.530Z,338.33
2023-04-01T02:56:45.203Z,373.20
2023-04-01T02:57:47.162Z,324.65
2023-04-01T02:58:51.940Z,371.48
2023-04-01T02:59:53.944Z,413.65
2023-04-01T03:00:58.581Z,335.33
2023-04-01T03:02:00.782Z,357.02
2023-04-01T03:03:05.989Z,319.45
2023-04-01T03:04:08.136Z,307.73
2023-04-01T03:05:13.751Z,323.95
2023-04-01T03:06:17.503Z,297.95
2023-04-01T03:07:22.064Z,288.10
2023-04-01T03:08:24.063Z,357.58
2023-04-01T03:09:29.452Z,340.48
2023-04-01T03:10:34.180Z,286.38
2023-04-01T03:11:38.771Z,330.90
2023-04-01T03:12:41.136Z,305.48
2023-04-01T03:13:45.726Z,253.18
2023-04-01T03:14:47.758Z,280.98
2023-04-01T03:15:52.423Z,279.75
2023-04-01T03:16:54.620Z,315.90
2023-04-01T03:17:59.441Z,279.40
2023-04-01T03:19:03.111Z,238.75
2023-04-01T03:20:09.620Z,297.17
2023-04-01T03:21:19.582Z,258.75
2023-04-01T03:22:24.221Z,225.70
2023-04-01T03:23:26.339Z,301.42
2023-04-01T03:24:30.957Z,269.75
2023-04-01T03:25:35.797Z,277.02
2023-04-01T03:26:40.418Z,316.20
2023-04-01T03:28:30.355Z,261.10
2023-04-01T03:29:35.109Z,275.80
2023-04-01T03:30:37.279Z,283.08
2023-04-01T03:31:41.941Z,263.55
2023-04-01T03:32:43.976Z,327.88
2023-04-01T03:33:48.639Z,287.75
2023-04-01T03:34:50.654Z,282.42
2023-04-01T03:35:55.893Z,309.60
2023-04-01T03:37:00.797Z,271.80
2023-04-01T03:38:02.953Z,249.00
2023-04-01T03:39:07.710Z,258.60
2023-04-01T03:40:11.346Z,277.15
2023-04-01T03:41:20.151Z,249.68
2023-04-01T03:42:22.276Z,532.67
2023-04-01T03:43:27.509Z,600.58
2023-04-01T03:44:32.229Z,269.55
2023-04-01T03:45:36.864Z,274.70
2023-04-01T03:46:39.253Z,296.90
2023-04-01T03:47:43.942Z,349.35
2023-04-01T03:48:45.981Z,326.40
2023-04-01T03:49:50.559Z,315.55
2023-04-01T03:50:52.822Z,401.15
2023-04-01T03:51:57.469Z,313.92
2023-04-01T03:52:59.535Z,268.25
2023-04-01T03:54:04.167Z,454.13
2023-04-01T03:55:07.199Z,255.43
2023-04-01T03:56:12.741Z,292.30
2023-04-01T03:57:19.974Z,279.98
2023-04-01T03:58:21.990Z,267.33
2023-04-01T03:59:26.570Z,283.42
2023-04-01T04:00:28.620Z,334.17
2023-04-01T04:01:33.375Z,321.50
2023-04-01T04:02:36.757Z,300.13
2023-04-01T04:03:41.589Z,293.27
2023-04-01T04:04:43.941Z,304.77
2023-04-01T04:05:51.631Z,390.63
2023-04-01T04:06:53.650Z,353.83
2023-04-01T04:07:59.090Z,339.40
2023-04-01T04:09:01.118Z,261.80
2023-04-01T04:10:06.024Z,294.70
2023-04-01T04:11:08.191Z,325.40
2023-04-01T04:12:12.792Z,301.15
2023-04-01T04:13:17.381Z,311.25
2023-04-01T04:14:22.069Z,300.60
2023-04-01T04:15:24.446Z,287.40
2023-04-01T04:16:29.428Z,329.05
2023-04-01T04:17:31.658Z,310.58
2023-04-01T04:18:36.564Z,340.17
2023-04-01T04:19:38.652Z,307.30
2023-04-01T04:20:48.283Z,341.45
2023-04-01T04:21:52.911Z,331.95
2023-04-01T04:22:54.933Z,368.15
2023-04-01T04:23:59.706Z,310.70
2023-04-01T04:25:01.857Z,296.83
2023-04-01T04:26:08.780Z,298.13
2023-04-01T04:27:10.939Z,339.40
2023-04-01T04:28:15.635Z,378.83
2023-04-01T04:29:20.522Z,283.73
2023-04-01T04:30:25.163Z,283.40
2023-04-01T04:31:30.207Z,289.63
2023-04-01T04:32:32.298Z,292.35
2023-04-01T04:33:38.069Z,314.92
2023-04-01T04:34:40.235Z,348.95
2023-04-01T04:35:44.944Z,275.95
2023-04-01T04:36:47.021Z,262.70
2023-04-01T04:37:51.667Z,355.75
2023-04-01T04:38:53.754Z,316.95
2023-04-01T04:39:58.355Z,313.85
2023-04-01T04:41:00.426Z,299.27
2023-04-01T04:42:05.078Z,241.85
2023-04-01T04:43:07.585Z,300.02
2023-04-01T04:44:12.247Z,1316.13
2023-04-01T04:45:17.113Z,272.17
2023-04-01T04:46:22.620Z,280.95
2023-04-01T04:47:24.684Z,255.93
2023-04-01T04:48:29.326Z,262.00
2023-04-01T04:49:31.478Z,293.83
2023-04-01T04:50:36.396Z,283.92
2023-04-01T04:51:41.103Z,292.40
2023-04-01T04:52:43.126Z,281.73
2023-04-01T04:53:49.599Z,293.98
2023-04-01T04:54:52.778Z,248.15
2023-04-01T04:55:57.428Z,286.35
2023-04-01T04:56:59.465Z,243.93
2023-04-01T04:58:04.100Z,258.75
2023-04-01T04:59:07.644Z,223.00
2023-04-01T05:00:14.116Z,263.58
2023-04-01T05:01:19.599Z,226.25
2023-04-01T05:02:24.343Z,307.73
2023-04-01T05:03:26.669Z,253.43
2023-04-01T05:04:31.379Z,249.85
2023-04-01T05:05:33.779Z,293.73
2023-04-01T05:06:38.556Z,295.58
2023-04-01T05:07:40.597Z,273.63
2023-04-01T05:08:45.626Z,280.13
2023-04-01T05:09:48.203Z,259.95
2023-04-01T05:10:52.899Z,297.63
2023-04-01T05:11:54.972Z,317.30
2023-04-01T05:12:59.616Z,336.05
2023-04-01T05:14:01.665Z,256.02
2023-04-01T05:15:07.718Z,303.27
2023-04-01T05:16:10.704Z,265.20
2023-04-01T05:17:17.973Z,270.13
2023-04-01T05:18:47.067Z,216.68
2023-04-01T05:19:49.097Z,374.52
2023-04-01T05:20:55.646Z,392.38
2023-04-01T05:21:57.699Z,393.02
2023-04-01T05:23:03.552Z,299.00
2023-04-01T05:24:11.465Z,228.55
2023-04-01T05:25:13.518Z,322.13
2023-04-01T05:26:18.659Z,264.42
2023-04-01T05:27:20.789Z,247.25
2023-04-01T05:28:25.432Z,257.08
2023-04-01T05:29:27.989Z,238.27
2023-04-01T05:30:32.613Z,280.80
2023-04-01T05:31:34.673Z,303.48
2023-04-01T05:32:41.954Z,291.85
2023-04-01T05:33:44.049Z,291.33
2023-04-01T05:34:48.836Z,305.05
2023-04-01T05:35:51.026Z,296.92
2023-04-01T05:36:55.766Z,283.65
2023-04-01T05:37:57.856Z,331.95
2023-04-01T05:39:02.524Z,306.13
2023-04-01T05:40:06.338Z,247.63
2023-04-01T05:41:11.088Z,260.35
2023-04-01T05:42:13.166Z,386.92
2023-04-01T05:43:17.807Z,203.80
2023-04-01T05:44:19.849Z,460.08
2023-04-01T05:45:25.129Z,239.30
2023-04-01T05:46:29.807Z,202.55
2023-04-01T05:47:31.923Z,265.83
2023-04-01T05:48:39.561Z,259.92
2023-04-01T05:49:41.606Z,218.57
2023-04-01T05:50:46.264Z,281.50
2023-04-01T05:51:48.313Z,338.73
2023-04-01T05:52:52.945Z,327.00
2023-04-01T05:53:55.004Z,311.00
2023-04-01T05:55:00.946Z,293.92
2023-04-01T05:56:04.544Z,254.00
2023-04-01T05:57:09.271Z,272.95
2023-04-01T05:58:11.381Z,250.60
2023-04-01T05:59:16.260Z,254.88
2023-04-01T06:00:21.092Z,323.35
2023-04-01T06:01:25.818Z,284.83
2023-04-01T06:02:28.502Z,256.80
2023-04-01T06:03:33.451Z,314.30
2023-04-01T06:04:40.310Z,321.52
2023-04-01T06:06:30.900Z,231.45
2023-04-01T06:07:35.576Z,191.13
2023-04-01T06:08:37.644Z,224.00
2023-04-01T06:09:42.720Z,231.35
2023-04-01T06:11:04.231Z,305.20
2023-04-01T06:12:33.492Z,283.88
2023-04-01T06:13:51.480Z,284.88
2023-04-01T06:15:01.996Z,319.73
2023-04-01T06:16:13.311Z,253.30
2023-04-01T06:17:30.222Z,374.60
2023-04-01T06:18:53.679Z,321.65
2023-04-01T06:20:07.689Z,308.38
2023-04-01T06:21:27.151Z,348.17
2023-04-01T06:22:56.849Z,266.45
2023-04-01T06:24:09.066Z,410.17
2023-04-01T06:25:29.570Z,229.07
2023-04-01T06:26:56.793Z,190.07
2023-04-01T06:28:16.592Z,281.63
2023-04-01T06:29:45.864Z,182.63
2023-04-01T06:34:06.585Z,261.60
2023-04-01T06:37:06.930Z,286.50
2023-04-01T06:40:25.519Z,334.98
2023-04-01T06:42:11.571Z,404.67
2023-04-01T06:43:30.497Z,322.33
2023-04-01T06:44:46.990Z,511.67
2023-04-01T06:46:01.190Z,473.83
2023-04-01T06:50:28.720Z,266.63
2023-04-01T06:51:41.676Z,179.35
2023-04-01T06:52:57.604Z,309.00
2023-04-01T06:54:07.039Z,153.50
2023-04-01T06:55:28.930Z,167.93
2023-04-01T06:57:44.634Z,170.75
2023-04-01T06:58:53.162Z,207.05
2023-04-01T07:00:01.295Z,222.98
2023-04-01T07:01:10.043Z,276.98
2023-04-01T07:02:25.759Z,300.20
2023-04-01T07:03:35.993Z,179.27
2023-04-01T07:04:44.483Z,167.70
2023-04-01T07:05:49.546Z,224.52
2023-04-01T07:06:55.210Z,248.80
2023-04-01T07:08:06.935Z,171.07
2023-04-01T07:10:21.777Z,93.88
2023-04-01T07:11:30.781Z,97.43
2023-04-01T07:12:45.759Z,93.00
2023-04-01T07:13:52.565Z,101.78
2023-04-01T07:14:58.712Z,110.43
2023-04-01T07:16:13.688Z,104.07
2023-04-01T07:17:21.671Z,152.57
2023-04-01T07:18:34.096Z,102.68
2023-04-01T07:19:46.231Z,108.03
2023-04-01T07:20:48.484Z,162.93
2023-04-01T07:21:56.554Z,126.32
2023-04-01T07:23:03.750Z,167.10
2023-04-01T07:24:13.271Z,90.45
2023-04-01T07:25:18.326Z,82.53
2023-04-01T07:26:26.707Z,84.40
2023-04-01T07:27:29.638Z,57.38
2023-04-01T07:28:37.074Z,69.60
2023-04-01T07:29:42.468Z,92.18
2023-04-01T07:30:54.302Z,74.30
2023-04-01T07:32:29.740Z,103.55
2023-04-01T07:33:43.212Z,104.85
2023-04-01T07:35:10.344Z,152.65
2023-04-01T07:36:22.932Z,128.70
2023-04-01T07:37:32.668Z,95.45
2023-04-01T07:38:53.599Z,111.78
2023-04-01T07:40:05.734Z,129.07
2023-04-01T07:41:17.644Z,89.10
2023-04-01T07:42:35.398Z,187.10
2023-04-01T07:43:53.877Z,112.50
2023-04-01T07:45:07.050Z,131.85
2023-04-01T07:46:23.319Z,88.82
2023-04-01T07:47:43.754Z,113.43
2023-04-01T07:48:57.884Z,112.18
2023-04-01T07:50:10.233Z,140.98
2023-04-01T07:51:21.618Z,102.43
2023-04-01T07:52:30.814Z,76.32
2023-04-01T07:53:44.676Z,106.03
2023-04-01T07:54:53.795Z,117.25
2023-04-01T07:56:06.947Z,90.30
2023-04-01T07:57:20.367Z,93.63
2023-04-01T07:58:34.491Z,109.78
2023-04-01T07:59:46.073Z,102.63
2023-04-01T08:02:07.153Z,122.80
2023-04-01T08:03:24.482Z,99.80
2023-04-01T08:04:52.925Z,147.95
2023-04-01T08:06:01.335Z,142.65
2023-04-01T08:07:13.265Z,117.03
2023-04-01T08:08:26.329Z,86.90
2023-04-01T08:09:41.461Z,106.32
2023-04-01T08:10:54.965Z,87.63
2023-04-01T08:12:12.407Z,89.50
2023-04-01T08:13:25.290Z,69.45
2023-04-01T08:14:37.526Z,91.10
2023-04-01T08:15:53.266Z,85.88
2023-04-01T08:17:06.376Z,125.03
2023-04-01T08:18:23.525Z,92.00
2023-04-01T08:19:42.722Z,89.18
2023-04-01T08:20:54.354Z,88.63
2023-04-01T08:23:10.780Z,106.63
2023-04-01T08:24:29.761Z,102.25
2023-04-01T08:25:44.011Z,111.32
2023-04-01T08:26:51.651Z,92.85
2023-04-01T08:28:03.905Z,127.03
2023-04-01T08:29:15.572Z,79.93
2023-04-01T08:31:29.782Z,87.00
2023-04-01T08:32:38.311Z,99.03
2023-04-01T08:33:46.003Z,106.30
2023-04-01T08:34:57.204Z,86.75
2023-04-01T08:36:09.647Z,189.70
2023-04-01T08:37:18.934Z,84.72
2023-04-01T08:38:28.904Z,138.18
2023-04-01T08:39:36.896Z,67.10
2023-04-01T08:42:31.154Z,175.65
2023-04-01T08:44:07.079Z,97.47
2023-04-01T08:45:34.327Z,76.13
2023-04-01T08:47:12.269Z,136.50
2023-04-01T08:48:49.490Z,124.40
2023-04-01T08:50:14.786Z,111.38
2023-04-01T08:51:54.672Z,116.10
2023-04-01T08:53:07.575Z,155.18
2023-04-01T08:54:43.894Z,166.45
2023-04-01T08:55:53.941Z,69.65
2023-04-01T08:57:08.170Z,92.93
2023-04-01T08:58:42.204Z,89.75
2023-04-01T08:59:58.763Z,73.25
2023-04-01T09:01:21.720Z,106.68
2023-04-01T09:03:05.012Z,108.00
2023-04-01T09:04:28.998Z,74.22
2023-04-01T09:06:06.450Z,87.07
2023-04-01T09:07:38.860Z,77.10
2023-04-01T09:08:59.720Z,100.90
2023-04-01T09:10:46.122Z,161.70
2023-04-01T09:12:11.881Z,79.40
2023-04-01T09:13:55.640Z,76.07
2023-04-01T09:15:34.557Z,100.22
2023-04-01T09:17:12.754Z,71.18
2023-04-01T09:18:43.267Z,102.07
2023-04-01T09:20:05.988Z,74.00
2023-04-01T09:21:38.462Z,92.40
2023-04-01T09:22:49.701Z,131.48
2023-04-01T09:24:27.361Z,121.90
2023-04-01T09:25:55.424Z,117.55
2023-04-01T09:27:09.157Z,113.93
2023-04-01T09:28:20.179Z,57.95
2023-04-01T09:29:54.245Z,95.38
2023-04-01T09:31:22.403Z,126.20
2023-04-01T09:34:58.100Z,103.90
2023-04-01T09:36:08.984Z,111.97
2023-04-01T09:37:23.004Z,92.82
2023-04-01T09:38:33.858Z,166.48
2023-04-01T09:39:38.192Z,337.45
2023-04-01T09:40:57.487Z,164.13
2023-04-01T09:42:21.997Z,180.70
2023-04-01T09:43:30.922Z,168.07
2023-04-01T09:44:37.971Z,142.93
2023-04-01T09:45:52.441Z,123.95
2023-04-01T09:47:10.820Z,160.80
2023-04-01T09:48:37.952Z,102.45
2023-04-01T09:49:59.830Z,143.90
2023-04-01T09:51:16.051Z,207.90
2023-04-01T09:52:32.724Z,191.68
2023-04-01T09:53:51.905Z,197.80
2023-04-01T09:55:10.447Z,222.95
2023-04-01T09:56:53.610Z,211.13
2023-04-01T09:58:27.147Z,331.75
2023-04-01T10:03:06.525Z,185.18
2023-04-01T10:04:51.321Z,138.85
2023-04-01T10:08:33.854Z,113.30
2023-04-01T10:10:08.180Z,123.55
2023-04-01T10:12:12.685Z,139.93
2023-04-01T10:13:49.023Z,185.23
2023-04-01T10:15:33.961Z,261.77
2023-04-01T10:18:44.923Z,305.73
2023-04-01T10:20:23.028Z,160.35
2023-04-01T10:21:54.042Z,174.45
2023-04-01T10:23:23.970Z,174.88
2023-04-01T10:24:59.838Z,143.35
2023-04-01T10:26:27.569Z,187.63
2023-04-01T10:27:58.266Z,194.07
2023-04-01T10:29:33.572Z,288.65
2023-04-01T10:31:08.769Z,184.98
2023-04-01T10:32:36.832Z,149.93
2023-04-01T10:34:15.786Z,150.98
2023-04-01T10:35:57.210Z,130.57
2023-04-01T10:37:17.738Z,150.02
2023-04-01T10:51:02.384Z,33.60
2023-04-01T10:52:37.957Z,49.10
2023-04-01T10:54:06.790Z,42.03
2023-04-01T10:55:32.175Z,54.20
2023-04-01T10:56:53.877Z,34.63
2023-04-01T10:58:45.237Z,45.35
2023-04-01T11:00:20.405Z,38.00
2023-04-01T11:02:11.390Z,119.47
2023-04-01T11:03:28.996Z,121.03
2023-04-01T11:05:23.481Z,153.40
2023-04-01T11:07:15.471Z,43.97
2023-04-01T11:08:51.360Z,122.45
2023-04-01T11:10:30.999Z,237.05
2023-04-01T11:12:08.133Z,46.03
2023-04-01T11:13:37.227Z,103.72
2023-04-01T11:15:28.736Z,142.70
2023-04-01T11:17:00.295Z,100.80
2023-04-01T11:18:36.982Z,63.28
2023-04-01T11:20:26.249Z,64.97
2023-04-01T11:22:06.728Z,54.90
2023-04-01T11:23:30.063Z,71.97
2023-04-01T11:25:07.851Z,68.32
2023-04-01T11:26:27.511Z,65.10
2023-04-01T11:28:01.792Z,62.90
2023-04-01T11:29:56.615Z,62.83
2023-04-01T11:31:26.592Z,54.70
2023-04-01T11:32:52.917Z,53.90
2023-04-01T11:34:07.489Z,54.22
2023-04-01T11:35:42.200Z,88.35
2023-04-01T11:37:01.072Z,88.63
2023-04-01T11:38:19.176Z,101.40
2023-04-01T11:39:32.532Z,46.78
2023-04-01T11:40:45.315Z,57.97
2023-04-01T11:42:03.284Z,74.07
2023-04-01T11:43:30.072Z,73.47
2023-04-01T11:44:44.071Z,52.42
2023-04-01T11:45:55.767Z,59.47
2023-04-01T11:47:27.670Z,44.60
2023-04-01T11:49:08.598Z,63.78
2023-04-01T11:50:27.031Z,64.30
2023-04-01T11:51:55.844Z,54.95
2023-04-01T11:53:28.321Z,64.82
2023-04-01T11:54:50.463Z,47.28
2023-04-01T11:56:20.281Z,50.72
2023-04-01T11:57:48.334Z,36.13
2023-04-01T11:59:27.562Z,49.85
2023-04-01T12:00:56.522Z,40.45
2023-04-01T12:02:14.268Z,63.53
2023-04-01T12:03:37.964Z,127.05
2023-04-01T12:05:08.511Z,55.35
2023-04-01T12:06:21.484Z,59.20
2023-04-01T12:07:38.508Z,73.03
2023-04-01T12:08:54.676Z,138.20
2023-04-01T12:10:07.152Z,82.40
2023-04-01T12:14:04.179Z,31.77
2023-04-01T12:16:07.930Z,61.50
2023-04-01T12:17:42.399Z,47.10
2023-04-01T12:19:25.744Z,27.30
2023-04-01T12:21:04.436Z,27.02
2023-04-01T12:22:51.330Z,35.22
2023-04-01T12:24:45.561Z,22.48
2023-04-01T12:26:26.880Z,23.45
2023-04-01T12:28:09.759Z,35.30
2023-04-01T12:30:10.572Z,43.53
2023-04-01T12:31:59.392Z,32.40
2023-04-01T12:35:32.421Z,49.30
2023-04-01T12:37:12.086Z,30.75
2023-04-01T12:38:51.500Z,41.45
2023-04-01T12:40:39.145Z,40.72
2023-04-01T12:44:34.797Z,27.30
2023-04-01T12:48:08.510Z,41.88
2023-04-01T12:50:09.954Z,43.10
2023-04-01T12:52:02.216Z,38.22
2023-04-01T12:54:02.397Z,48.95
2023-04-01T12:55:52.082Z,33.90
2023-04-01T12:57:47.409Z,29.35
2023-04-01T12:59:35.812Z,22.75
2023-04-01T13:01:04.729Z,27.00
2023-04-01T13:02:38.659Z,83.82
2023-04-01T13:04:22.294Z,23.05
2023-04-01T13:06:23.002Z,37.05
2023-04-01T13:12:04.573Z,36.83
2023-04-01T13:18:03.427Z,27.85
2023-04-01T13:20:05.540Z,63.58
2023-04-01T13:23:40.190Z,28.40
2023-04-01T13:25:07.941Z,24.17
2023-04-01T13:28:54.741Z,42.55
2023-04-01T13:30:52.873Z,31.95
2023-04-01T13:32:45.295Z,33.92
2023-04-01T13:34:32.811Z,42.10
2023-04-01T13:36:12.544Z,38.97
2023-04-01T13:38:14.398Z,45.15
2023-04-01T13:40:12.894Z,36.60
2023-04-01T13:42:11.921Z,38.00
2023-04-01T13:43:40.339Z,49.88
2023-04-01T13:45:19.926Z,23.20
2023-04-01T13:47:14.202Z,47.15
2023-04-01T13:49:03.314Z,48.58
2023-04-01T13:50:51.651Z,35.40
2023-04-01T13:52:58.389Z,25.00
2023-04-01T13:54:55.824Z,24.15
2023-04-01T13:56:25.624Z,50.67
2023-04-01T13:58:01.528Z,29.55
2023-04-01T14:01:47.754Z,48.50
2023-04-01T14:03:44.291Z,60.42
2023-04-01T14:11:39.846Z,41.72
2023-04-01T14:13:47.285Z,43.53
2023-04-01T14:15:22.294Z,51.70
2023-04-01T14:17:52.786Z,40.47
2023-04-01T14:19:35.078Z,41.45
2023-04-01T14:21:30.711Z,35.17
2023-04-01T14:22:56.364Z,35.22
2023-04-01T14:27:15.185Z,45.42
2023-04-01T14:29:01.731Z,80.47
2023-04-01T14:38:30.614Z,33.58
2023-04-01T14:40:19.912Z,45.58
2023-04-01T14:45:08.581Z,32.08
2023-04-01T14:46:52.441Z,47.95
2023-04-01T14:48:40.714Z,24.65
2023-04-01T14:49:53.352Z,38.85
2023-04-01T14:51:06.100Z,40.58
2023-04-01T14:52:18.767Z,52.03
2023-04-01T14:53:29.397Z,92.13
2023-04-01T14:54:38.281Z,68.25
2023-04-01T14:55:51.365Z,69.85
2023-04-01T14:57:09.272Z,94.95
2023-04-01T14:58:14.421Z,61.42
2023-04-01T14:59:30.345Z,77.13
2023-04-01T15:00:58.046Z,76.30
2023-04-01T15:02:11.247Z,87.47
2023-04-01T15:03:24.656Z,105.85
2023-04-01T15:04:44.656Z,139.45
2023-04-01T15:05:52.996Z,74.07
2023-04-01T15:07:11.113Z,61.15
2023-04-01T15:08:22.908Z,115.55
2023-04-01T15:09:40.328Z,122.13
2023-04-01T15:11:24.663Z,59.97
2023-04-01T15:12:31.960Z,107.43
2023-04-01T15:14:07.574Z,88.53
2023-04-01T15:15:40.054Z,88.35
2023-04-01T15:16:56.545Z,158.18
2023-04-01T15:18:12.378Z,144.40
2023-04-01T15:19:33.706Z,114.65
2023-04-01T15:20:55.758Z,81.35
2023-04-01T15:22:31.662Z,106.18
2023-04-01T15:23:48.376Z,88.25
2023-04-01T15:25:07.098Z,79.20
2023-04-01T15:26:35.875Z,143.25
2023-04-01T15:31:33.629Z,195.80
2023-04-01T15:32:54.665Z,143.77
2023-04-01T15:34:27.355Z,129.65
2023-04-01T15:35:43.859Z,152.65
2023-04-01T15:36:57.478Z,117.63
2023-04-01T15:38:07.973Z,99.00
2023-04-01T15:39:21.667Z,124.00
2023-04-01T15:40:32.752Z,172.23
2023-04-01T15:45:44.407Z,233.90
2023-04-01T15:46:49.119Z,198.43
2023-04-01T15:48:03.554Z,161.65
2023-04-01T15:49:16.290Z,174.90
2023-04-01T15:50:50.780Z,203.63
2023-04-01T15:52:11.733Z,133.70
2023-04-01T15:53:37.292Z,252.15
2023-04-01T15:55:05.030Z,135.60
2023-04-01T15:56:23.165Z,123.32
2023-04-01T15:57:41.246Z,144.00
2023-04-01T15:58:52.896Z,150.88
2023-04-01T16:01:18.596Z,129.02
2023-04-01T16:02:32.361Z,105.30
2023-04-01T16:03:44.523Z,116.60
2023-04-01T16:04:57.871Z,102.28
2023-04-01T16:06:38.935Z,151.10
2023-04-01T16:08:01.583Z,117.53
2023-04-01T16:09:22.761Z,121.95
2023-04-01T16:10:51.400Z,167.05
2023-04-01T16:12:05.847Z,89.65
2023-04-01T16:13:26.452Z,110.00
2023-04-01T16:14:44.036Z,165.00
2023-04-01T16:15:58.607Z,115.40
2023-04-01T16:17:17.011Z,114.60
2023-04-01T16:18:42.983Z,166.57
2023-04-01T16:19:56.904Z,234.38
2023-04-01T16:21:26.366Z,129.05
2023-04-01T16:22:39.161Z,175.93
2023-04-01T16:23:49.747Z,124.95
2023-04-01T16:25:00.178Z,135.00
2023-04-01T16:26:09.243Z,161.00
2023-04-01T16:27:18.797Z,176.15
2023-04-01T16:28:27.377Z,214.63
2023-04-01T16:29:42.614Z,284.00
2023-04-01T16:30:52.053Z,155.27
2023-04-01T16:32:02.041Z,124.10
2023-04-01T16:33:14.510Z,126.97
2023-04-01T16:34:21.923Z,149.25
2023-04-01T16:35:34.342Z,165.63
2023-04-01T16:36:42.606Z,195.05
2023-04-01T16:37:54.576Z,131.73
2023-04-01T16:39:18.051Z,163.70
2023-04-01T16:40:37.992Z,136.25
2023-04-01T16:41:48.159Z,114.15
2023-04-01T16:42:56.863Z,130.68
2023-04-01T16:44:14.436Z,159.75
2023-04-01T16:45:39.016Z,154.75
2023-04-01T16:46:47.150Z,87.35
2023-04-01T16:47:52.180Z,106.60
2023-04-01T16:49:05.102Z,108.40
2023-04-01T16:50:19.278Z,190.52
2023-04-01T16:51:22.409Z,127.28
2023-04-01T16:53:09.604Z,164.68
2023-04-01T16:56:20.176Z,134.88
2023-04-01T16:57:50.662Z,105.60
2023-04-01T16:59:06.657Z,97.70
2023-04-01T17:00:22.574Z,126.30
2023-04-01T17:01:32.856Z,253.15
2023-04-01T17:02:39.272Z,114.80
2023-04-01T17:03:47.901Z,86.18
2023-04-01T17:04:55.939Z,113.15
2023-04-01T17:07:27.840Z,182.15
2023-04-01T17:08:50.530Z,172.38
2023-04-01T17:10:11.040Z,94.05
2023-04-01T17:11:24.029Z,153.02
2023-04-01T17:12:33.684Z,244.43
2023-04-01T17:13:44.192Z,131.35
2023-04-01T17:14:57.051Z,128.75
2023-04-01T17:16:15.509Z,156.07
2023-04-01T17:17:33.046Z,185.52
2023-04-01T17:18:44.477Z,188.68
2023-04-01T17:20:13.882Z,203.35
2023-04-01T17:21:26.723Z,114.15
2023-04-01T17:22:35.685Z,167.50
2023-04-01T17:23:47.784Z,136.68
2023-04-01T17:25:11.899Z,112.95
2023-04-01T17:26:28.825Z,207.75
2023-04-01T17:27:43.061Z,190.85
2023-04-01T17:28:51.621Z,137.40
2023-04-01T17:30:16.422Z,133.98
2023-04-01T17:31:36.648Z,173.07
2023-04-01T17:32:53.399Z,246.60
2023-04-01T17:34:15.941Z,159.77
2023-04-01T17:35:23.976Z,163.40
2023-04-01T17:36:44.455Z,196.73
2023-04-01T17:37:59.488Z,156.73
2023-04-01T17:39:27.270Z,114.28
2023-04-01T17:40:45.313Z,189.48
2023-04-01T17:41:54.935Z,206.32